Time;durP1;ratioP1;P1;durP2;ratioP2;P2;SDS_P1;SDS_P2;PMS_P1;PMS_P2;Temp;Humidity;BMP_temperature;BMP_pressure;BME280_temperature;BME280_humidity;BME280_pressure;Samples;Min_cycle;Max_cycle;Signal;HPM_P1;HPM_P2
2021/11/13 00:01:25;;;;;;;4.17;1.73;;;11.70;99.90;;;;;;5041596;28;20196;-85
2021/11/13 00:03:56;;;;;;;3.93;1.67;;;11.70;99.90;;;;;;5041212;28;20201;-86
2021/11/13 00:06:27;;;;;;;3.53;1.47;;;11.80;99.90;;;;;;5030653;28;20670;-85
2021/11/13 00:09:00;;;;;;;2.97;1.50;;;11.70;99.90;;;;;;5026008;28;20217;-86
2021/11/13 00:11:31;;;;;;;3.00;1.47;;;11.70;99.90;;;;;;5028410;28;20285;-85
2021/11/13 00:14:03;;;;;;;3.97;1.47;;;11.70;99.90;;;;;;5032111;28;20248;-84
2021/11/13 00:16:36;;;;;;;3.27;1.37;;;11.70;99.90;;;;;;5040101;28;20198;-87
2021/11/13 00:19:07;;;;;;;3.87;1.37;;;11.70;99.90;;;;;;5021620;28;20263;-88
2021/11/13 00:21:38;;;;;;;3.90;1.23;;;11.70;99.90;;;;;;5034568;28;20193;-85
2021/11/13 00:24:12;;;;;;;2.07;1.27;;;11.70;99.90;;;;;;5025147;28;20257;-86
2021/11/13 00:26:43;;;;;;;3.70;1.57;;;11.70;99.90;;;;;;5024106;28;20290;-85
2021/11/13 00:29:15;;;;;;;5.57;1.70;;;11.70;99.90;;;;;;5045463;28;20201;-82
2021/11/13 00:31:47;;;;;;;3.27;1.60;;;11.60;99.90;;;;;;5032953;28;20201;-85
2021/11/13 00:34:19;;;;;;;2.23;1.60;;;11.60;99.90;;;;;;5037424;28;20242;-86
2021/11/13 00:36:50;;;;;;;3.27;1.33;;;11.60;99.90;;;;;;5019025;28;20217;-85
2021/11/13 00:39:24;;;;;;;2.80;1.40;;;11.60;99.90;;;;;;5014785;28;20689;-85
2021/11/13 00:41:55;;;;;;;2.73;1.80;;;11.60;99.90;;;;;;5039656;28;20197;-85
2021/11/13 00:44:27;;;;;;;2.77;1.37;;;11.50;99.90;;;;;;5025959;28;20210;-86
2021/11/13 00:46:58;;;;;;;4.73;1.80;;;11.50;99.90;;;;;;5019927;28;20237;-86
2021/11/13 00:49:29;;;;;;;3.70;1.80;;;11.50;99.90;;;;;;5027091;28;20212;-88
2021/11/13 00:52:00;;;;;;;5.27;2.60;;;11.50;99.90;;;;;;5021834;28;20248;-83
2021/11/13 00:54:34;;;;;;;6.03;3.30;;;11.40;99.90;;;;;;5018598;28;20217;-86
2021/11/13 00:57:07;;;;;;;5.63;3.20;;;11.40;99.90;;;;;;5030690;28;20229;-85
2021/11/13 00:59:40;;;;;;;8.87;3.20;;;11.40;99.90;;;;;;5023438;28;20270;-85
2021/11/13 01:02:13;;;;;;;3.43;2.63;;;11.40;99.90;;;;;;5027725;28;20213;-85
2021/11/13 01:04:44;;;;;;;3.47;2.60;;;11.30;99.90;;;;;;5031481;28;20252;-85
2021/11/13 01:07:15;;;;;;;4.20;2.37;;;11.30;99.90;;;;;;5026645;28;20237;-87
2021/11/13 01:09:48;;;;;;;5.63;2.60;;;11.30;99.90;;;;;;5037525;28;20646;-90
2021/11/13 01:12:20;;;;;;;4.63;2.63;;;11.30;99.90;;;;;;5019853;28;20198;-88
2021/11/13 01:14:51;;;;;;;3.67;2.13;;;11.30;99.90;;;;;;5019963;28;20205;-88
2021/11/13 01:17:22;;;;;;;5.00;2.30;;;11.20;99.90;;;;;;5018554;28;20210;-90
2021/11/13 01:19:54;;;;;;;3.20;1.90;;;11.10;99.90;;;;;;5021600;28;20237;-88
2021/11/13 01:22:25;;;;;;;4.83;1.70;;;11.10;99.90;;;;;;5016243;28;20627;-83
2021/11/13 01:24:59;;;;;;;5.67;2.10;;;11.00;99.90;;;;;;5016626;28;20297;-82
2021/11/13 01:27:30;;;;;;;5.23;1.90;;;10.90;99.90;;;;;;5015460;28;20288;-82
2021/11/13 01:30:01;;;;;;;3.40;1.93;;;10.90;99.90;;;;;;5031719;28;20214;-83
2021/11/13 01:32:32;;;;;;;3.10;2.27;;;10.90;99.90;;;;;;5031116;28;20214;-83
2021/11/13 01:35:03;;;;;;;3.10;2.10;;;10.90;99.90;;;;;;5033489;28;20273;-82
2021/11/13 01:37:35;;;;;;;3.90;1.73;;;11.00;99.90;;;;;;5025218;28;20227;-83
2021/11/13 01:40:10;;;;;;;2.47;1.23;;;11.10;99.90;;;;;;5026765;28;20222;-82
2021/11/13 01:42:42;;;;;;;2.50;1.50;;;11.20;99.90;;;;;;5037596;28;20213;-81
2021/11/13 01:45:16;;;;;;;3.87;2.77;;;11.20;99.90;;;;;;5037142;28;20202;-83
2021/11/13 01:47:48;;;;;;;4.67;2.07;;;11.30;99.90;;;;;;5037044;28;20194;-83
2021/11/13 01:50:22;;;;;;;3.40;2.70;;;11.40;99.90;;;;;;5031511;28;20237;-83
2021/11/13 01:52:54;;;;;;;3.63;2.50;;;11.40;99.90;;;;;;5021862;28;20217;-82
2021/11/13 01:55:29;;;;;;;4.87;2.57;;;11.50;99.90;;;;;;5030278;28;20258;-83
2021/11/13 01:58:02;;;;;;;4.50;2.83;;;11.50;99.90;;;;;;5022136;28;20202;-83
2021/11/13 02:00:37;;;;;;;6.50;3.00;;;11.50;99.90;;;;;;5027235;28;20256;-83
2021/11/13 02:03:09;;;;;;;5.70;3.03;;;11.60;99.90;;;;;;5024739;28;20205;-84
2021/11/13 02:05:41;;;;;;;6.63;2.80;;;11.60;99.90;;;;;;5029372;28;20293;-83
2021/11/13 02:08:12;;;;;;;8.97;3.07;;;11.60;99.90;;;;;;5023534;28;20254;-83
2021/11/13 02:10:47;;;;;;;7.17;3.10;;;11.60;99.90;;;;;;5025217;28;20213;-82
2021/11/13 02:13:19;;;;;;;6.77;3.20;;;11.60;99.90;;;;;;5030719;28;20237;-83
2021/11/13 02:15:50;;;;;;;6.47;3.27;;;11.60;99.90;;;;;;5033823;28;20653;-83
2021/11/13 02:18:21;;;;;;;6.37;2.83;;;11.60;99.90;;;;;;5028635;28;20205;-83
2021/11/13 02:20:55;;;;;;;6.27;3.10;;;11.70;99.90;;;;;;5030935;28;20292;-84
2021/11/13 02:23:27;;;;;;;6.33;3.20;;;11.60;99.90;;;;;;5028914;28;20225;-84
2021/11/13 02:25:59;;;;;;;5.90;2.90;;;11.70;99.90;;;;;;5030063;28;20216;-83
2021/11/13 02:28:35;;;;;;;5.77;3.23;;;11.70;99.90;;;;;;5026982;28;20235;-83
2021/11/13 02:31:09;;;;;;;5.80;2.70;;;11.70;99.90;;;;;;5022370;28;20249;-82
2021/11/13 02:33:41;;;;;;;5.77;2.70;;;11.70;99.90;;;;;;5009221;28;20213;-83
2021/11/13 02:36:15;;;;;;;7.43;3.30;;;11.70;99.90;;;;;;5007852;28;20248;-83
2021/11/13 02:38:46;;;;;;;5.43;2.90;;;11.70;99.90;;;;;;5015955;28;20221;-84
2021/11/13 02:41:19;;;;;;;6.17;3.10;;;11.70;99.90;;;;;;5028755;28;20662;-83
2021/11/13 02:43:51;;;;;;;7.50;3.30;;;11.70;99.90;;;;;;5026802;28;20288;-83
2021/11/13 02:46:24;;;;;;;5.47;3.53;;;11.70;99.90;;;;;;5022250;28;20613;-84
2021/11/13 02:48:56;;;;;;;7.47;2.97;;;11.60;99.90;;;;;;5025640;28;20281;-83
2021/11/13 02:51:29;;;;;;;7.43;3.33;;;11.60;99.90;;;;;;5027367;28;20258;-90
2021/11/13 02:54:01;;;;;;;8.07;3.03;;;11.60;99.90;;;;;;5031380;28;20217;-90
2021/11/13 02:56:34;;;;;;;5.60;3.43;;;11.70;99.90;;;;;;5031085;28;20221;-87
2021/11/13 02:59:08;;;;;;;5.97;3.40;;;11.70;99.90;;;;;;5032386;28;20276;-86
2021/11/13 03:01:40;;;;;;;9.47;3.57;;;11.60;99.90;;;;;;5034394;28;20225;-84
2021/11/13 03:04:15;;;;;;;9.17;3.80;;;11.60;99.90;;;;;;5031371;28;20206;-86
2021/11/13 03:06:49;;;;;;;7.07;3.70;;;11.60;99.90;;;;;;5051694;28;20201;-87
2021/11/13 03:09:21;;;;;;;10.43;4.77;;;11.60;99.90;;;;;;5033627;28;20206;-85
2021/11/13 03:11:53;;;;;;;6.50;3.70;;;11.60;99.90;;;;;;5032954;28;20201;-88
2021/11/13 03:14:25;;;;;;;7.50;3.27;;;11.60;99.90;;;;;;5031529;28;20206;-86
2021/11/13 03:17:02;;;;;;;9.23;3.40;;;11.60;99.90;;;;;;5032838;28;20255;-87
2021/11/13 03:19:35;;;;;;;7.07;3.50;;;11.60;99.90;;;;;;5033170;28;20193;-86
2021/11/13 03:22:10;;;;;;;8.10;3.23;;;11.60;99.90;;;;;;5032021;28;20248;-88
2021/11/13 03:24:43;;;;;;;6.13;3.40;;;11.60;99.90;;;;;;5019188;28;20245;-87
2021/11/13 03:30:02;;;;;;;7.60;3.67;;;11.60;99.90;;;;;;5034097;28;20213;-87
2021/11/13 03:32:50;;;;;;;5.60;2.70;;;11.60;99.90;;;;;;5035966;28;20217;-85
2021/11/13 03:35:27;;;;;;;6.80;3.07;;;11.60;99.90;;;;;;5033051;28;20335;-87
2021/11/13 03:38:06;;;;;;;7.00;3.43;;;11.50;99.90;;;;;;5033672;28;20220;-88
2021/11/13 03:40:39;;;;;;;7.37;3.40;;;11.50;99.90;;;;;;5032915;28;20212;-86
2021/11/13 03:43:11;;;;;;;6.10;3.23;;;11.50;99.90;;;;;;5028521;28;20213;-86
2021/11/13 03:45:44;;;;;;;6.43;3.57;;;11.40;99.90;;;;;;5028877;28;20214;-87
2021/11/13 03:48:18;;;;;;;7.80;3.40;;;11.40;99.90;;;;;;5029337;28;20216;-87
2021/11/13 03:50:50;;;;;;;4.90;2.93;;;11.40;99.90;;;;;;5029452;28;20260;-87
2021/11/13 03:53:24;;;;;;;4.50;2.87;;;11.30;99.90;;;;;;5044386;28;20210;-86
2021/11/13 03:55:55;;;;;;;4.77;3.13;;;11.30;99.90;;;;;;5042450;28;20221;-87
2021/11/13 03:58:27;;;;;;;7.30;3.20;;;11.20;99.90;;;;;;5028315;28;20220;-87
2021/11/13 04:00:59;;;;;;;6.70;3.70;;;11.20;99.90;;;;;;5029023;28;20233;-86
2021/11/13 04:03:30;;;;;;;4.80;3.13;;;11.20;99.90;;;;;;5029926;28;20667;-86
2021/11/13 04:06:02;;;;;;;5.57;3.50;;;11.20;99.90;;;;;;5029450;28;20281;-87
2021/11/13 04:08:36;;;;;;;9.70;5.43;;;11.20;99.90;;;;;;5036447;28;20205;-86
2021/11/13 04:11:10;;;;;;;7.47;3.70;;;11.20;99.90;;;;;;5037241;28;20204;-83
2021/11/13 04:13:41;;;;;;;3.93;3.17;;;11.30;99.90;;;;;;5033451;28;20232;-86
2021/11/13 04:16:14;;;;;;;6.23;3.33;;;11.30;99.90;;;;;;5029006;28;20202;-86
2021/11/13 04:18:46;;;;;;;6.80;3.53;;;11.30;99.90;;;;;;5024433;28;20244;-85
2021/11/13 04:21:17;;;;;;;6.43;3.50;;;11.30;99.90;;;;;;5018117;28;20230;-86
2021/11/13 04:23:52;;;;;;;5.93;3.33;;;11.40;99.90;;;;;;5017682;28;20201;-86
2021/11/13 04:26:24;;;;;;;5.77;3.57;;;11.40;99.90;;;;;;5028560;28;20201;-86
2021/11/13 04:28:55;;;;;;;5.83;3.70;;;11.30;99.90;;;;;;5023724;28;20201;-87
2021/11/13 04:31:26;;;;;;;7.97;3.63;;;11.30;99.90;;;;;;4997673;28;20587;-87
2021/11/13 04:34:01;;;;;;;5.30;3.73;;;11.30;99.90;;;;;;5023706;28;20278;-87
2021/11/13 04:36:34;;;;;;;6.10;3.30;;;11.30;99.90;;;;;;5024779;28;20216;-87
2021/11/13 04:39:09;;;;;;;6.60;3.63;;;11.30;99.90;;;;;;5016137;28;20610;-87
2021/11/13 04:41:42;;;;;;;4.70;3.17;;;11.40;99.90;;;;;;5028851;28;20271;-87
2021/11/13 04:44:14;;;;;;;8.97;3.87;;;11.40;99.90;;;;;;5027936;28;20664;-87
2021/11/13 04:46:45;;;;;;;10.90;3.73;;;11.40;99.90;;;;;;5029888;28;20202;-87
2021/11/13 04:49:19;;;;;;;8.10;3.47;;;11.40;99.90;;;;;;5024830;28;20627;-88
2021/11/13 04:51:50;;;;;;;12.27;4.10;;;11.30;99.90;;;;;;5030680;28;20522;-87
2021/11/13 04:54:23;;;;;;;12.83;3.80;;;11.40;99.90;;;;;;5035908;28;20220;-86
2021/11/13 04:56:55;;;;;;;12.83;3.60;;;11.40;99.90;;;;;;5054183;22;20205;-87
2021/11/13 04:59:26;;;;;;;9.50;3.80;;;11.40;99.90;;;;;;5057736;28;20212;-87
2021/11/13 05:01:58;;;;;;;11.30;3.43;;;11.30;99.90;;;;;;5055479;28;20673;-86
2021/11/13 05:04:29;;;;;;;11.50;3.90;;;11.30;99.90;;;;;;5055724;28;20665;-86
2021/11/13 05:07:01;;;;;;;10.03;3.33;;;11.30;99.90;;;;;;5054017;22;20271;-87
2021/11/13 05:09:34;;;;;;;8.83;3.50;;;11.30;99.90;;;;;;5034951;28;20247;-86
2021/11/13 05:12:06;;;;;;;13.17;3.80;;;11.30;99.90;;;;;;5071118;28;20188;-87
2021/11/13 05:14:39;;;;;;;10.90;3.90;;;11.20;99.90;;;;;;5060713;28;20264;-86
2021/11/13 05:17:10;;;;;;;10.40;4.17;;;11.10;99.90;;;;;;5059053;28;20232;-87
2021/11/13 05:19:42;;;;;;;9.70;4.00;;;11.00;99.90;;;;;;5039400;28;20205;-87
2021/11/13 05:22:13;;;;;;;12.30;3.80;;;11.00;99.90;;;;;;5035136;28;20267;-87
2021/11/13 05:24:47;;;;;;;13.37;3.70;;;10.90;99.90;;;;;;5033566;28;20293;-86
2021/11/13 05:27:18;;;;;;;10.37;3.23;;;10.90;99.90;;;;;;5028300;28;20239;-86
2021/11/13 05:29:49;;;;;;;9.97;3.23;;;10.90;99.90;;;;;;5015487;28;20236;-87
2021/11/13 05:32:22;;;;;;;12.53;3.20;;;10.90;99.90;;;;;;5042241;28;20231;-86
2021/11/13 05:34:54;;;;;;;8.37;3.03;;;10.80;99.90;;;;;;5039826;28;20209;-87
2021/11/13 05:37:26;;;;;;;13.77;3.40;;;10.70;99.90;;;;;;5044144;28;20567;-87
2021/11/13 05:39:59;;;;;;;12.17;4.00;;;10.60;99.90;;;;;;5038453;28;20223;-88
2021/11/13 05:42:30;;;;;;;17.37;4.70;;;10.60;99.90;;;;;;5039013;28;20240;-86
2021/11/13 05:45:02;;;;;;;13.13;5.43;;;10.50;99.90;;;;;;5032999;28;20206;-85
2021/11/13 05:47:33;;;;;;;16.07;5.27;;;10.50;99.90;;;;;;5018520;28;20212;-86
2021/11/13 05:50:09;;;;;;;14.53;5.67;;;10.50;99.90;;;;;;5018539;28;20635;-87
2021/11/13 05:52:41;;;;;;;14.43;5.50;;;10.50;99.90;;;;;;5018599;28;20181;-87
2021/11/13 05:55:15;;;;;;;18.40;5.47;;;10.50;99.90;;;;;;5034237;28;20201;-87
2021/11/13 05:57:46;;;;;;;14.33;5.63;;;10.50;99.90;;;;;;5039645;28;20232;-86
2021/11/13 06:00:20;;;;;;;16.63;5.70;;;10.40;99.90;;;;;;5037731;28;20288;-87
2021/11/13 06:02:52;;;;;;;16.00;6.77;;;10.50;99.90;;;;;;5047950;28;20235;-86
2021/11/13 06:05:24;;;;;;;18.03;6.83;;;10.50;99.90;;;;;;5037737;28;20274;-87
2021/11/13 06:07:55;;;;;;;15.00;7.37;;;10.50;99.90;;;;;;5038560;28;20212;-87
2021/11/13 06:10:29;;;;;;;14.97;6.30;;;10.50;99.90;;;;;;5037091;28;20220;-85
2021/11/13 06:13:00;;;;;;;19.17;7.03;;;10.60;99.90;;;;;;5021616;28;20208;-86
2021/11/13 06:15:31;;;;;;;17.73;6.37;;;10.60;99.90;;;;;;5027301;28;20205;-86
2021/11/13 06:18:03;;;;;;;15.17;5.40;;;10.60;99.90;;;;;;5025844;28;20205;-86
2021/11/13 06:20:34;;;;;;;9.87;4.67;;;10.60;99.90;;;;;;5035070;28;20201;-86
2021/11/13 06:23:07;;;;;;;16.03;3.90;;;10.60;99.90;;;;;;5034709;28;20245;-87
2021/11/13 06:25:42;;;;;;;9.27;3.67;;;10.60;99.90;;;;;;5040085;28;20236;-86
2021/11/13 06:28:13;;;;;;;12.43;3.30;;;10.60;99.90;;;;;;5051163;28;20197;-86
2021/11/13 06:30:46;;;;;;;12.53;3.43;;;10.60;99.90;;;;;;5052211;28;20304;-87
2021/11/13 06:33:18;;;;;;;14.60;4.10;;;10.50;99.90;;;;;;5057585;28;20201;-87
2021/11/13 06:35:52;;;;;;;10.50;4.00;;;10.50;99.90;;;;;;5053410;28;20307;-87
2021/11/13 06:38:24;;;;;;;10.67;4.00;;;10.50;99.90;;;;;;5051579;28;20239;-86
2021/11/13 06:41:00;;;;;;;10.90;3.23;;;10.40;99.90;;;;;;5050545;28;20205;-87
2021/11/13 06:43:36;;;;;;;11.83;3.80;;;10.30;99.90;;;;;;5050560;28;20228;-87
2021/11/13 06:46:08;;;;;;;7.73;3.20;;;10.20;99.90;;;;;;5052425;28;20201;-86
2021/11/13 06:48:39;;;;;;;15.43;3.73;;;10.10;99.90;;;;;;5052273;28;20212;-88
2021/11/13 06:51:12;;;;;;;8.80;3.90;;;10.00;99.90;;;;;;5052334;28;20207;-88
2021/11/13 06:53:43;;;;;;;11.43;3.67;;;10.00;99.90;;;;;;5052435;28;20204;-87
2021/11/13 06:56:17;;;;;;;11.37;3.47;;;10.00;99.90;;;;;;5047224;28;20582;-86
2021/11/13 06:58:49;;;;;;;13.13;4.10;;;10.00;99.90;;;;;;5048191;28;20230;-86
2021/11/13 07:01:20;;;;;;;14.13;5.73;;;9.90;99.90;;;;;;5052753;28;20251;-87
2021/11/13 07:03:51;;;;;;;11.60;6.20;;;9.90;99.90;;;;;;5051411;28;20626;-87
2021/11/13 07:06:23;;;;;;;15.93;6.70;;;9.90;99.90;;;;;;5049989;28;20205;-87
2021/11/13 07:08:54;;;;;;;19.10;7.43;;;9.90;99.90;;;;;;5047594;28;20371;-86
2021/11/13 07:11:30;;;;;;;15.37;7.13;;;9.90;99.90;;;;;;5050317;28;20223;-85
2021/11/13 07:14:02;;;;;;;15.63;7.23;;;10.00;99.90;;;;;;5050374;28;20219;-86
2021/11/13 07:16:33;;;;;;;14.70;7.33;;;10.00;99.90;;;;;;5049999;28;20205;-86
2021/11/13 07:19:05;;;;;;;14.23;6.90;;;10.00;99.90;;;;;;5050744;28;20205;-86
2021/11/13 07:21:38;;;;;;;13.03;5.53;;;10.00;99.90;;;;;;5050779;28;20276;-87
2021/11/13 07:24:11;;;;;;;9.93;4.70;;;10.00;99.90;;;;;;5030901;28;20241;-86
2021/11/13 07:26:53;;;;;;;12.67;4.53;;;10.00;99.90;;;;;;5029072;28;20217;-86
2021/11/13 07:29:25;;;;;;;17.27;4.77;;;10.00;99.90;;;;;;5024090;28;20223;-86
2021/11/13 07:31:57;;;;;;;11.37;3.90;;;10.00;99.90;;;;;;5041656;28;20288;-87
2021/11/13 07:34:28;;;;;;;15.33;4.63;;;10.00;99.90;;;;;;5049508;28;20209;-86
2021/11/13 07:37:00;;;;;;;13.87;3.77;;;10.00;99.90;;;;;;5049151;28;20209;-86
2021/11/13 07:39:33;;;;;;;10.10;3.17;;;10.00;99.90;;;;;;5047815;28;20273;-87
2021/11/13 07:42:08;;;;;;;13.60;3.10;;;10.00;99.90;;;;;;5030995;28;20210;-88
2021/11/13 07:44:40;;;;;;;12.03;3.30;;;10.10;99.90;;;;;;5049119;28;20224;-87
2021/11/13 07:47:13;;;;;;;11.50;2.67;;;10.00;99.90;;;;;;5044339;28;20209;-85
2021/11/13 07:49:45;;;;;;;10.27;2.83;;;10.00;99.90;;;;;;5037405;28;20213;-86
2021/11/13 07:52:17;;;;;;;11.33;2.83;;;10.00;99.90;;;;;;5042717;28;20208;-85
2021/11/13 07:54:49;;;;;;;14.70;3.33;;;9.90;99.90;;;;;;5050403;28;20304;-86
2021/11/13 07:57:23;;;;;;;13.63;3.60;;;9.90;99.90;;;;;;5046903;28;20212;-86
2021/11/13 08:00:02;;;;;;;12.23;3.10;;;9.90;99.90;;;;;;5791670;22;20248;-88
2021/11/13 08:02:35;;;;;;;20.17;4.23;;;9.90;99.90;;;;;;5075519;28;20206;-86
2021/11/13 08:05:09;;;;;;;16.90;5.27;;;9.90;99.90;;;;;;5073207;28;20283;-86
2021/11/13 08:07:41;;;;;;;13.90;4.40;;;9.80;99.90;;;;;;5074646;28;20200;-84
2021/11/13 08:10:14;;;;;;;16.07;4.43;;;9.80;99.90;;;;;;5073946;28;20230;-86
2021/11/13 08:12:48;;;;;;;11.53;3.23;;;9.80;99.90;;;;;;5072652;28;20192;-87
2021/11/13 08:15:23;;;;;;;16.47;3.60;;;9.70;99.90;;;;;;5072197;28;20192;-86
2021/11/13 08:17:58;;;;;;;12.93;3.20;;;9.70;99.90;;;;;;5070294;28;20291;-86
2021/11/13 08:20:30;;;;;;;15.57;3.17;;;9.70;99.90;;;;;;5067352;28;20270;-85
2021/11/13 08:23:04;;;;;;;14.70;4.57;;;9.60;99.90;;;;;;5068411;28;20215;-86
2021/11/13 08:25:36;;;;;;;13.90;3.20;;;9.50;99.90;;;;;;5069047;28;20200;-87
2021/11/13 08:28:11;;;;;;;12.37;3.67;;;9.50;99.90;;;;;;5089558;28;20218;-87
2021/11/13 08:30:46;;;;;;;14.17;2.93;;;9.40;99.90;;;;;;5088752;28;20203;-87
2021/11/13 08:33:18;;;;;;;10.93;3.27;;;9.40;99.90;;;;;;5076839;28;20240;-87
2021/11/13 08:35:51;;;;;;;15.17;3.00;;;9.20;99.90;;;;;;5067546;28;20200;-86
2021/11/13 08:38:24;;;;;;;13.73;2.97;;;9.20;99.90;;;;;;5057608;28;20223;-86
2021/11/13 08:40:58;;;;;;;17.70;3.13;;;9.20;99.90;;;;;;5068659;28;20220;-85
2021/11/13 08:43:31;;;;;;;13.60;4.03;;;9.20;99.90;;;;;;5064699;28;20223;-87
2021/11/13 08:46:03;;;;;;;17.60;4.20;;;9.20;99.90;;;;;;5060794;28;20215;-88
2021/11/13 08:48:34;;;;;;;17.37;5.37;;;9.10;99.90;;;;;;5058326;28;20253;-87
2021/11/13 08:51:06;;;;;;;18.93;6.10;;;9.10;99.90;;;;;;5053366;28;20263;-87
2021/11/13 08:53:38;;;;;;;15.43;5.57;;;9.00;99.90;;;;;;5039568;28;20267;-86
2021/11/13 08:56:09;;;;;;;19.83;4.87;;;9.00;99.90;;;;;;5034198;28;20213;-86
2021/11/13 08:58:42;;;;;;;14.03;4.77;;;9.00;99.90;;;;;;5036089;28;20205;-87
2021/11/13 09:01:14;;;;;;;19.13;5.17;;;8.90;99.90;;;;;;5053238;28;20224;-87
2021/11/13 09:03:46;;;;;;;15.40;4.20;;;8.80;99.90;;;;;;5058017;28;20579;-87
2021/11/13 09:06:21;;;;;;;19.83;4.87;;;8.80;99.90;;;;;;5055838;28;20240;-86
2021/11/13 09:08:53;;;;;;;18.97;6.63;;;8.70;99.90;;;;;;5068192;28;20204;-88
2021/11/13 09:11:28;;;;;;;14.07;6.53;;;8.70;99.90;;;;;;5066245;28;20273;-87
2021/11/13 09:14:03;;;;;;;21.57;6.83;;;8.70;99.90;;;;;;5064393;28;20207;-87
2021/11/13 09:16:35;;;;;;;21.67;6.80;;;8.60;99.90;;;;;;5070758;28;20227;-86
2021/11/13 09:19:07;;;;;;;18.37;5.30;;;8.60;99.90;;;;;;5064080;28;20280;-86
2021/11/13 09:21:39;;;;;;;14.33;4.77;;;8.70;99.90;;;;;;5058835;28;20216;-86
2021/11/13 09:24:11;;;;;;;20.33;5.17;;;8.70;99.90;;;;;;5057515;28;20228;-86
2021/11/13 09:26:43;;;;;;;15.67;4.50;;;8.80;99.90;;;;;;5057928;28;20196;-86
2021/11/13 09:29:16;;;;;;;13.37;4.50;;;8.90;99.90;;;;;;5058948;28;20295;-85
2021/11/13 09:31:48;;;;;;;14.13;4.80;;;8.90;99.90;;;;;;5058897;28;20577;-86
2021/11/13 09:34:22;;;;;;;13.37;3.43;;;9.00;99.90;;;;;;5058842;28;20200;-87
2021/11/13 09:36:53;;;;;;;14.43;4.20;;;9.00;99.90;;;;;;5057322;28;20226;-87
2021/11/13 09:39:26;;;;;;;15.27;3.90;;;9.00;99.90;;;;;;5058992;28;20268;-87
2021/11/13 09:42:00;;;;;;;10.97;3.60;;;9.00;99.90;;;;;;5057387;28;20204;-87
2021/11/13 09:44:33;;;;;;;9.80;3.93;;;9.00;99.90;;;;;;5061782;28;20263;-87
2021/11/13 09:47:05;;;;;;;16.40;3.70;;;9.00;99.90;;;;;;5058852;28;20624;-86
2021/11/13 09:49:37;;;;;;;15.03;3.93;;;9.00;99.90;;;;;;5059066;28;20207;-86
2021/11/13 09:52:10;;;;;;;16.07;3.80;;;9.10;99.90;;;;;;5059211;28;20287;-86
2021/11/13 09:54:41;;;;;;;16.87;3.97;;;9.10;99.90;;;;;;5058478;28;20212;-86
2021/11/13 09:57:14;;;;;;;13.37;3.50;;;9.10;99.90;;;;;;5058002;28;20212;-86
2021/11/13 09:59:48;;;;;;;13.90;4.03;;;9.10;99.90;;;;;;5057355;28;20212;-86
2021/11/13 10:02:19;;;;;;;15.53;3.57;;;9.10;99.90;;;;;;5048677;28;20220;-86
2021/11/13 10:04:51;;;;;;;12.83;3.77;;;9.10;99.90;;;;;;5038974;28;20267;-86
2021/11/13 10:07:22;;;;;;;12.67;3.47;;;9.10;99.90;;;;;;5038687;28;20235;-87
2021/11/13 10:09:54;;;;;;;12.93;3.73;;;9.10;99.90;;;;;;5039096;28;20339;-86
2021/11/13 10:12:36;;;;;;;14.93;4.20;;;9.10;99.90;;;;;;5039626;28;20662;-86
2021/11/13 10:15:42;;;;;;;18.33;3.87;;;9.10;99.90;;;;;;5038775;28;20738;-87
2021/11/13 10:18:16;;;;;;;11.20;4.57;;;9.00;99.90;;;;;;5038689;28;20254;-86
2021/11/13 10:20:50;;;;;;;9.17;3.83;;;9.00;99.90;;;;;;5058686;28;20207;-85
2021/11/13 10:23:36;;;;;;;14.00;3.23;;;8.90;99.90;;;;;;5038949;28;20263;-85
2021/11/13 10:26:10;;;;;;;12.87;3.40;;;8.90;99.90;;;;;;5038266;28;20897;-86
2021/11/13 10:29:01;;;;;;;13.97;4.00;;;8.80;99.90;;;;;;5047677;28;20227;-87
2021/11/13 10:31:37;;;;;;;9.53;3.57;;;8.80;99.90;;;;;;5056200;28;21306;-86
2021/11/13 10:34:11;;;;;;;11.37;2.97;;;8.80;99.90;;;;;;5058952;28;20218;-85
2021/11/13 10:36:45;;;;;;;15.17;3.10;;;8.70;99.90;;;;;;5058743;28;20204;-86
2021/11/13 10:39:18;;;;;;;18.43;3.00;;;8.60;99.90;;;;;;5058202;28;20204;-86
2021/11/13 10:41:52;;;;;;;13.87;3.00;;;8.60;99.90;;;;;;5057088;28;20612;-86
2021/11/13 10:44:28;;;;;;;14.83;2.70;;;8.50;99.90;;;;;;5058371;28;20204;-86
2021/11/13 10:47:02;;;;;;;13.50;2.40;;;8.50;99.90;;;;;;5057729;28;20241;-86
2021/11/13 10:49:33;;;;;;;10.83;2.30;;;8.40;99.90;;;;;;5058352;28;20238;-86
2021/11/13 10:52:07;;;;;;;14.37;3.10;;;8.40;99.90;;;;;;5062475;28;20283;-85
2021/11/13 10:54:40;;;;;;;11.37;2.23;;;8.30;99.90;;;;;;5065727;28;20208;-86
2021/11/13 10:57:13;;;;;;;7.00;2.17;;;8.20;99.90;;;;;;5064826;28;20201;-85
2021/11/13 10:59:45;;;;;;;13.07;3.43;;;8.20;99.90;;;;;;5042431;28;20605;-86
2021/11/13 11:02:19;;;;;;;15.50;3.30;;;8.20;99.90;;;;;;5037763;28;20259;-86
2021/11/13 11:04:51;;;;;;;13.17;3.30;;;8.20;99.90;;;;;;5050335;28;20293;-85
2021/11/13 11:07:27;;;;;;;9.73;2.70;;;8.10;99.90;;;;;;5057825;28;20247;-86
2021/11/13 11:10:04;;;;;;;13.67;3.43;;;8.10;99.90;;;;;;5057586;28;20667;-86
2021/11/13 11:12:37;;;;;;;12.70;3.10;;;8.10;99.90;;;;;;5057231;28;20257;-87
2021/11/13 11:15:10;;;;;;;15.97;2.83;;;8.10;99.90;;;;;;5057175;28;20208;-85
2021/11/13 11:17:46;;;;;;;12.30;2.70;;;8.10;99.90;;;;;;5057134;28;20295;-87
2021/11/13 11:20:20;;;;;;;15.03;2.83;;;8.20;99.90;;;;;;5057438;28;20242;-86
2021/11/13 11:22:53;;;;;;;11.87;2.90;;;8.20;99.90;;;;;;5057756;28;20236;-85
2021/11/13 11:25:28;;;;;;;13.77;3.23;;;8.20;99.90;;;;;;5056846;28;20263;-86
2021/11/13 11:27:59;;;;;;;16.57;3.20;;;8.20;99.90;;;;;;5057245;28;20200;-85
2021/11/13 11:30:48;;;;;;;13.27;3.70;;;8.20;99.90;;;;;;5057852;28;20282;-87
2021/11/13 11:33:41;;;;;;;11.47;3.57;;;8.20;99.90;;;;;;5057165;28;20247;-87
2021/11/13 11:36:31;;;;;;;9.70;2.70;;;8.10;99.90;;;;;;5057531;28;20212;-87
2021/11/13 11:39:02;;;;;;;12.20;2.93;;;8.20;99.90;;;;;;5056493;28;20278;-87
2021/11/13 11:41:33;;;;;;;12.03;3.47;;;8.20;99.90;;;;;;5058188;28;20236;-86
2021/11/13 11:44:05;;;;;;;8.40;2.97;;;8.20;99.90;;;;;;5057472;28;20238;-87
2021/11/13 11:46:36;;;;;;;8.40;3.50;;;8.20;99.90;;;;;;5057632;28;20238;-87
2021/11/13 11:49:10;;;;;;;11.43;3.37;;;8.20;99.90;;;;;;5072021;28;20220;-85
2021/11/13 11:51:42;;;;;;;10.77;3.53;;;8.20;99.90;;;;;;5076245;28;20207;-87
2021/11/13 11:54:13;;;;;;;9.83;3.00;;;8.30;99.90;;;;;;5075782;28;20246;-86
2021/11/13 11:56:44;;;;;;;16.80;4.23;;;8.20;99.90;;;;;;5075353;28;20206;-87
2021/11/13 11:59:16;;;;;;;19.43;4.80;;;8.10;99.90;;;;;;5075977;28;20628;-86
2021/11/13 12:01:47;;;;;;;16.80;4.50;;;8.10;99.90;;;;;;5075519;28;20243;-87
2021/11/13 12:04:24;;;;;;;15.07;4.67;;;8.10;99.90;;;;;;5056015;28;20220;-86
2021/11/13 12:06:57;;;;;;;15.37;4.90;;;8.10;99.90;;;;;;5070072;28;20213;-86
2021/11/13 12:09:29;;;;;;;13.13;4.83;;;8.10;99.90;;;;;;5073231;28;20215;-86
2021/11/13 12:12:18;;;;;;;13.67;4.03;;;8.20;99.90;;;;;;5066599;28;20218;-86
2021/11/13 12:14:49;;;;;;;12.13;3.20;;;8.20;99.90;;;;;;5062688;28;20211;-86
2021/11/13 12:17:43;;;;;;;9.73;3.13;;;8.20;99.90;;;;;;5057669;28;20208;-86
2021/11/13 12:20:25;;;;;;;12.30;3.17;;;8.10;99.90;;;;;;5059881;28;20239;-87
2021/11/13 12:23:08;;;;;;;16.47;2.70;;;8.20;99.90;;;;;;5058653;28;20269;-86
2021/11/13 12:25:42;;;;;;;10.97;3.10;;;8.20;99.90;;;;;;5057961;28;20228;-87
2021/11/13 12:28:19;;;;;;;9.83;3.07;;;8.10;99.90;;;;;;5058469;28;20207;-87
2021/11/13 12:30:55;;;;;;;17.03;2.73;;;8.10;99.90;;;;;;5061544;28;20199;-87
2021/11/13 12:33:55;;;;;;;23.27;2.57;;;8.10;99.90;;;;;;5058085;28;20850;-86
2021/11/13 12:36:54;;;;;;;8.33;2.37;;;8.10;99.90;;;;;;5057350;28;20232;-86
2021/11/13 12:39:26;;;;;;;9.83;2.33;;;8.10;99.90;;;;;;5057774;28;20300;-86
2021/11/13 12:42:06;;;;;;;9.17;2.30;;;8.00;99.90;;;;;;5056963;28;20204;-86
2021/11/13 12:44:41;;;;;;;13.30;2.40;;;8.00;99.90;;;;;;5060809;28;20293;-86
2021/11/13 12:47:20;;;;;;;10.33;2.27;;;7.90;99.90;;;;;;5060473;28;20585;-86
2021/11/13 12:49:59;;;;;;;11.03;2.33;;;7.80;99.90;;;;;;5060969;28;20234;-86
2021/11/13 12:52:49;;;;;;;10.73;2.63;;;7.80;99.90;;;;;;5065181;28;20204;-86
2021/11/13 12:55:29;;;;;;;6.33;1.73;;;7.70;99.90;;;;;;5060296;28;20211;-85
2021/11/13 12:58:12;;;;;;;9.57;2.43;;;7.70;99.90;;;;;;5073313;28;20199;-86
2021/11/13 13:00:48;;;;;;;8.40;2.20;;;7.70;99.90;;;;;;5051904;28;20239;-86
2021/11/13 13:03:25;;;;;;;10.73;2.43;;;7.70;99.90;;;;;;5045056;28;20207;-87
2021/11/13 13:06:05;;;;;;;11.17;2.60;;;7.60;99.90;;;;;;5048822;28;20282;-87
2021/11/13 13:08:38;;;;;;;14.00;2.57;;;7.50;99.90;;;;;;5060159;28;20239;-86
2021/11/13 13:11:12;;;;;;;14.10;2.80;;;7.50;99.90;;;;;;5066492;28;20243;-86
2021/11/13 13:13:44;;;;;;;8.53;2.53;;;7.30;99.90;;;;;;5063301;28;20212;-86
2021/11/13 13:16:16;;;;;;;9.63;2.50;;;7.30;99.90;;;;;;5060589;28;20239;-86
2021/11/13 13:18:47;;;;;;;8.13;1.77;;;7.40;99.90;;;;;;5061264;28;20295;-86
2021/11/13 13:21:18;;;;;;;14.37;2.67;;;7.30;99.90;;;;;;5060400;28;20246;-85